Time;durP1;ratioP1;P1;durP2;ratioP2;P2;SDS_P1;SDS_P2;PMS_P1;PMS_P2;Temp;Humidity;BMP_temperature;BMP_pressure;BME280_temperature;BME280_humidity;BME280_pressure;Samples;Min_cycle;Max_cycle;Signal;HPM_P1;HPM_P2
2022/04/09 00:00:25;;;;;;;;;;;;;;;7.29;53.93;99853.94;5055217;28;20547;-77
2022/04/09 00:02:50;;;;;;;;;;;;;;;6.80;55.57;99862.72;5040489;28;20361;-78
2022/04/09 00:05:16;;;;;;;;;;;;;;;7.34;54.76;99867.63;5051625;28;19924;-79
2022/04/09 00:07:42;;;;;;;;;;;;;;;7.34;54.83;99875.38;5051342;28;19977;-75
2022/04/09 00:10:08;;;;;;;;;;;;;;;7.24;55.26;99879.88;5040801;28;19924;-79
2022/04/09 00:12:33;;;;;;;;;;;;;;;7.14;55.34;99893.84;5056174;28;20033;-78
2022/04/09 00:14:59;;;;;;;;;;;;;;;7.24;55.18;99897.94;5045727;28;20024;-75
2022/04/09 00:17:25;;;;;;;;;;;;;;;7.51;53.86;99888.75;5053952;28;20443;-79
2022/04/09 00:19:51;;;;;;;;;;;;;;;6.87;57.12;99905.59;5054226;28;19956;-79
2022/04/09 00:22:17;;;;;;;;;;;;;;;7.28;54.97;99906.50;5057918;28;20009;-78
2022/04/09 00:24:42;;;;;;;;;;;;;;;6.67;56.67;99918.03;5046056;28;20046;-79
2022/04/09 00:27:07;;;;;;;;;;;;;;;6.46;57.11;99926.13;5045364;28;20370;-79
2022/04/09 00:29:33;;;;;;;;;;;;;;;6.90;56.16;99926.19;5050526;28;19932;-75
2022/04/09 00:31:58;;;;;;;;;;;;;;;6.67;56.96;99941.25;5050703;28;20443;-78
2022/04/09 00:34:24;;;;;;;;;;;;;;;7.31;55.47;99935.69;5047562;28;19925;-78
2022/04/09 00:36:49;;;;;;;;;;;;;;;7.40;55.76;99945.84;5033487;28;19924;-78
2022/04/09 00:39:14;;;;;;;;;;;;;;;7.17;55.36;99953.19;5055061;28;19948;-78
2022/04/09 00:41:41;;;;;;;;;;;;;;;6.93;57.68;99951.13;5056327;28;19932;-75
2022/04/09 00:44:19;;;;;;;;;;;;;;;7.28;55.23;99948.69;5047279;28;20506;-75
2022/04/09 00:46:44;;;;;;;;;;;;;;;7.30;55.60;99956.38;5040687;28;19927;-79
2022/04/09 00:49:10;;;;;;;;;;;;;;;6.97;56.15;99969.09;5058102;28;19920;-75
2022/04/09 00:51:36;;;;;;;;;;;;;;;7.14;55.58;99967.03;5053262;28;20051;-75
2022/04/09 00:54:03;;;;;;;;;;;;;;;7.49;55.41;99975.81;5054830;28;19917;-75
2022/04/09 00:56:28;;;;;;;;;;;;;;;6.93;56.89;99985.50;5059421;28;20015;-75
2022/04/09 00:58:56;;;;;;;;;;;;;;;7.10;56.62;99986.06;5049901;28;20016;-78
2022/04/09 01:01:22;;;;;;;;;;;;;;;7.14;56.52;99999.75;5036826;28;19927;-77
2022/04/09 01:03:49;;;;;;;;;;;;;;;6.75;57.56;100006.47;5053933;28;20270;-77
2022/04/09 01:06:14;;;;;;;;;;;;;;;7.56;55.44;100011.81;5052173;28;20368;-75
2022/04/09 01:08:40;;;;;;;;;;;;;;;7.35;55.66;100003.63;5054056;28;19925;-79
2022/04/09 01:11:05;;;;;;;;;;;;;;;7.11;56.32;100012.72;5057813;28;19964;-78
2022/04/09 01:13:30;;;;;;;;;;;;;;;7.37;55.83;100012.22;5053391;28;19964;-75
2022/04/09 01:15:56;;;;;;;;;;;;;;;7.21;56.19;100026.31;5045149;28;20015;-78
2022/04/09 01:18:21;;;;;;;;;;;;;;;6.44;59.38;100037.09;5044198;28;19925;-79
2022/04/09 01:20:47;;;;;;;;;;;;;;;6.67;58.08;100033.31;5052647;28;19979;-78
2022/04/09 01:23:12;;;;;;;;;;;;;;;6.71;58.01;100042.72;5047765;28;20126;-78
2022/04/09 01:25:38;;;;;;;;;;;;;;;7.16;57.00;100035.88;5048360;28;19921;-79
2022/04/09 01:28:03;;;;;;;;;;;;;;;6.93;57.47;100054.38;5054311;28;20309;-79
2022/04/09 01:30:28;;;;;;;;;;;;;;;6.99;57.68;100049.09;5052042;28;19923;-78
2022/04/09 01:32:54;;;;;;;;;;;;;;;7.25;56.57;100061.56;5049254;28;19924;-78
2022/04/09 01:35:19;;;;;;;;;;;;;;;7.42;56.46;100064.66;5045494;28;19969;-78
2022/04/09 01:37:44;;;;;;;;;;;;;;;7.29;56.17;100066.63;5057637;28;19928;-79
2022/04/09 01:40:10;;;;;;;;;;;;;;;7.23;56.93;100071.88;5040575;28;20566;-78
2022/04/09 01:42:36;;;;;;;;;;;;;;;7.48;55.88;100080.03;5062790;28;19967;-78
2022/04/09 01:45:02;;;;;;;;;;;;;;;7.19;56.04;100082.31;5055321;28;20403;-75
2022/04/09 01:47:28;;;;;;;;;;;;;;;7.09;56.89;100086.78;5057515;28;20031;-77
2022/04/09 01:49:53;;;;;;;;;;;;;;;7.01;57.23;100089.53;5054838;28;20011;-75
2022/04/09 01:52:19;;;;;;;;;;;;;;;7.24;56.78;100102.03;5055509;28;20015;-77
2022/04/09 01:54:44;;;;;;;;;;;;;;;7.33;56.45;100106.16;5056520;28;19987;-75
2022/04/09 01:57:09;;;;;;;;;;;;;;;7.05;57.56;100108.38;5044630;28;20287;-75
2022/04/09 01:59:36;;;;;;;;;;;;;;;6.79;58.40;100120.88;5046546;28;19933;-77
2022/04/09 02:02:01;;;;;;;;;;;;;;;7.20;57.22;100121.03;5053322;28;19967;-77
2022/04/09 02:04:27;;;;;;;;;;;;;;;7.14;56.55;100127.16;5058246;28;19963;-75
2022/04/09 02:06:52;;;;;;;;;;;;;;;6.86;58.04;100135.38;5042970;28;19960;-76
2022/04/09 02:09:17;;;;;;;;;;;;;;;7.29;57.23;100138.94;5043614;28;20389;-77
2022/04/09 02:11:43;;;;;;;;;;;;;;;7.10;56.84;100140.16;5059830;28;19967;-76
2022/04/09 02:14:09;;;;;;;;;;;;;;;7.27;57.53;100145.88;5065787;28;20300;-79
2022/04/09 02:16:35;;;;;;;;;;;;;;;7.17;57.17;100148.66;5014108;28;19924;-75
2022/04/09 02:19:00;;;;;;;;;;;;;;;7.37;56.30;100151.75;5051204;28;20297;-75
2022/04/09 02:21:25;;;;;;;;;;;;;;;7.15;57.11;100156.41;5057723;28;19932;-77
2022/04/09 02:23:51;;;;;;;;;;;;;;;7.32;55.55;100164.72;5048035;28;19921;-77
2022/04/09 02:26:16;;;;;;;;;;;;;;;7.44;55.38;100158.50;5044883;28;19921;-77
2022/04/09 02:28:41;;;;;;;;;;;;;;;7.13;57.05;100159.03;5046284;28;19925;-77
2022/04/09 02:31:07;;;;;;;;;;;;;;;7.22;57.11;100167.50;5057903;28;20419;-79
2022/04/09 02:33:32;;;;;;;;;;;;;;;7.16;57.16;100167.59;5048276;28;19921;-79
2022/04/09 02:35:57;;;;;;;;;;;;;;;7.20;56.13;100167.53;5046107;28;19955;-78
2022/04/09 02:38:24;;;;;;;;;;;;;;;7.30;56.98;100178.56;5058928;28;19920;-78
2022/04/09 02:40:49;;;;;;;;;;;;;;;6.99;57.86;100186.81;5061653;28;19998;-78
2022/04/09 02:43:14;;;;;;;;;;;;;;;7.34;56.41;100182.81;5043146;28;19963;-79
2022/04/09 02:45:40;;;;;;;;;;;;;;;7.03;58.06;100197.94;5051142;28;20381;-79
2022/04/09 02:48:06;;;;;;;;;;;;;;;7.30;56.49;100197.50;5051647;28;19925;-75
2022/04/09 02:50:31;;;;;;;;;;;;;;;7.42;55.54;100199.03;5043578;28;19920;-75
2022/04/09 02:52:56;;;;;;;;;;;;;;;7.09;56.64;100205.59;5036579;28;19986;-75
2022/04/09 02:55:22;;;;;;;;;;;;;;;7.14;56.17;100216.69;5058115;28;19920;-79
2022/04/09 02:57:47;;;;;;;;;;;;;;;7.40;56.69;100217.16;5058578;28;19948;-77
2022/04/09 03:00:12;;;;;;;;;;;;;;;7.08;56.75;100217.66;5048453;28;19931;-78
2022/04/09 03:02:38;;;;;;;;;;;;;;;7.43;55.93;100234.31;5054176;28;19924;-78
2022/04/09 03:05:04;;;;;;;;;;;;;;;6.95;57.11;100247.13;5052881;28;19924;-77
2022/04/09 03:07:29;;;;;;;;;;;;;;;7.13;57.02;100238.25;5048989;28;19924;-78
2022/04/09 03:09:55;;;;;;;;;;;;;;;7.23;55.97;100249.31;5040668;28;19927;-79
2022/04/09 03:12:20;;;;;;;;;;;;;;;7.28;56.53;100245.78;5053427;28;20018;-75
2022/04/09 03:14:46;;;;;;;;;;;;;;;7.40;55.69;100253.31;5051126;28;19925;-77
2022/04/09 03:17:11;;;;;;;;;;;;;;;7.26;55.98;100255.25;5064943;28;20403;-79
2022/04/09 03:19:37;;;;;;;;;;;;;;;7.33;56.26;100261.19;5054050;28;19925;-75
2022/04/09 03:22:02;;;;;;;;;;;;;;;7.35;55.57;100267.16;5052579;28;19925;-79
2022/04/09 03:24:29;;;;;;;;;;;;;;;7.54;56.12;100268.59;5044773;28;20028;-75
2022/04/09 03:26:54;;;;;;;;;;;;;;;7.03;56.62;100278.84;5048583;28;19921;-75
2022/04/09 03:29:19;;;;;;;;;;;;;;;7.47;55.88;100274.72;5055967;28;19920;-75
2022/04/09 03:31:44;;;;;;;;;;;;;;;7.21;56.46;100288.06;5043742;28;20011;-79
2022/04/09 03:34:10;;;;;;;;;;;;;;;7.56;56.16;100283.19;5052004;28;20011;-79
2022/04/09 03:36:36;;;;;;;;;;;;;;;7.34;55.59;100293.91;5052383;28;20392;-75
2022/04/09 03:39:02;;;;;;;;;;;;;;;7.53;55.27;100293.56;5034568;28;19920;-79
2022/04/09 03:41:27;;;;;;;;;;;;;;;7.30;56.69;100300.84;5052386;28;19947;-78
2022/04/09 03:43:53;;;;;;;;;;;;;;;7.29;56.87;100303.44;5047518;28;20389;-77
2022/04/09 03:46:19;;;;;;;;;;;;;;;7.46;55.41;100297.16;5051284;28;20486;-75
2022/04/09 03:48:45;;;;;;;;;;;;;;;7.45;55.28;100298.03;5041680;28;20602;-75
2022/04/09 03:51:11;;;;;;;;;;;;;;;7.59;55.50;100298.66;5054581;28;19920;-75
2022/04/09 03:53:36;;;;;;;;;;;;;;;7.32;55.48;100311.13;5056562;28;19931;-79
2022/04/09 03:56:01;;;;;;;;;;;;;;;7.00;57.42;100316.78;5053742;28;20706;-79
2022/04/09 03:58:27;;;;;;;;;;;;;;;6.99;57.77;100323.66;5047301;28;19916;-79
2022/04/09 04:00:52;;;;;;;;;;;;;;;7.12;56.16;100326.94;5056843;28;19968;-79
2022/04/09 04:03:19;;;;;;;;;;;;;;;7.56;55.16;100329.72;5049205;28;20007;-79
2022/04/09 04:05:45;;;;;;;;;;;;;;;7.49;55.60;100335.00;5047806;28;20429;-79
2022/04/09 04:08:10;;;;;;;;;;;;;;;7.58;55.60;100335.69;5046549;28;19931;-80
2022/04/09 04:10:37;;;;;;;;;;;;;;;7.47;56.07;100347.09;5046356;28;19958;-79
2022/04/09 04:13:03;;;;;;;;;;;;;;;7.66;55.21;100344.22;5050789;28;19924;-79
2022/04/09 04:15:29;;;;;;;;;;;;;;;7.39;55.71;100344.63;5055222;28;19920;-78
2022/04/09 04:17:55;;;;;;;;;;;;;;;7.22;56.31;100346.59;5055711;28;19928;-78
2022/04/09 04:20:20;;;;;;;;;;;;;;;7.23;56.55;100350.88;5046429;28;19944;-78
2022/04/09 04:22:45;;;;;;;;;;;;;;;7.31;56.04;100359.41;5039713;28;19924;-75
2022/04/09 04:25:11;;;;;;;;;;;;;;;7.50;55.78;100355.66;5048122;28;19925;-77
2022/04/09 04:27:43;;;;;;;;;;;;;;;7.44;55.79;100372.97;5052025;28;20062;-79
2022/04/09 04:30:08;;;;;;;;;;;;;;;7.29;56.50;100376.63;5050392;28;20015;-79
2022/04/09 04:32:34;;;;;;;;;;;;;;;7.55;55.55;100377.09;5056576;28;20484;-78
2022/04/09 04:34:59;;;;;;;;;;;;;;;7.41;55.92;100376.47;5060763;28;20393;-78
2022/04/09 04:37:24;;;;;;;;;;;;;;;7.30;56.12;100386.09;5047624;28;19964;-79
2022/04/09 04:39:50;;;;;;;;;;;;;;;7.17;57.14;100389.72;5038754;28;26026;-79
2022/04/09 04:42:15;;;;;;;;;;;;;;;7.39;56.30;100390.28;5056387;28;20404;-78
2022/04/09 04:44:40;;;;;;;;;;;;;;;7.41;56.20;100393.69;5053907;28;19925;-75
2022/04/09 04:47:06;;;;;;;;;;;;;;;7.11;57.01;100398.41;5032551;28;19928;-79
2022/04/09 04:49:31;;;;;;;;;;;;;;;7.25;55.87;100394.78;5058196;28;19932;-79
2022/04/09 04:51:56;;;;;;;;;;;;;;;7.47;56.28;100407.38;5058298;28;19928;-78
2022/04/09 04:54:22;;;;;;;;;;;;;;;7.03;57.50;100414.88;5055631;28;19943;-77
2022/04/09 04:56:47;;;;;;;;;;;;;;;7.00;57.97;100407.16;5052060;28;19928;-75
2022/04/09 04:59:12;;;;;;;;;;;;;;;7.26;55.69;100425.75;5044133;28;19921;-76
2022/04/09 05:01:40;;;;;;;;;;;;;;;7.46;55.43;100413.44;5054440;28;19979;-77
2022/04/09 05:04:05;;;;;;;;;;;;;;;7.34;55.60;100423.09;5056973;28;20385;-78
2022/04/09 05:06:31;;;;;;;;;;;;;;;7.35;56.90;100420.47;5054046;28;19928;-77
2022/04/09 05:08:56;;;;;;;;;;;;;;;7.13;57.43;100429.38;5052859;28;19920;-75
2022/04/09 05:11:21;;;;;;;;;;;;;;;7.04;56.52;100432.09;5044370;28;19925;-77
2022/04/09 05:13:47;;;;;;;;;;;;;;;7.10;57.24;100438.03;5061136;28;20371;-78
2022/04/09 05:16:12;;;;;;;;;;;;;;;7.26;56.32;100438.69;5049816;28;20455;-79
2022/04/09 05:18:37;;;;;;;;;;;;;;;6.97;58.18;100451.09;5056015;28;19924;-78
2022/04/09 05:21:03;;;;;;;;;;;;;;;7.19;56.33;100449.13;5055878;28;19960;-75
2022/04/09 05:23:28;;;;;;;;;;;;;;;7.30;56.27;100455.84;5044526;28;20304;-79
2022/04/09 05:25:54;;;;;;;;;;;;;;;7.44;56.17;100453.94;5046443;28;19944;-79
2022/04/09 05:28:19;;;;;;;;;;;;;;;7.27;56.32;100461.06;5046631;28;20458;-75
2022/04/09 05:30:44;;;;;;;;;;;;;;;7.01;56.97;100461.38;5052308;28;19925;-78
2022/04/09 05:33:09;;;;;;;;;;;;;;;7.24;55.30;100466.28;5045629;28;19932;-78
2022/04/09 05:35:35;;;;;;;;;;;;;;;7.05;56.72;100473.38;5048013;28;20289;-78
2022/04/09 05:38:00;;;;;;;;;;;;;;;7.29;56.36;100482.56;5045405;28;19956;-79
2022/04/09 05:40:25;;;;;;;;;;;;;;;7.07;55.93;100487.16;5035596;28;19925;-79
2022/04/09 05:42:51;;;;;;;;;;;;;;;7.11;56.39;100491.38;5044096;28;19927;-78
2022/04/09 05:45:16;;;;;;;;;;;;;;;7.23;56.43;100500.72;5046640;28;19928;-78
2022/04/09 05:47:43;;;;;;;;;;;;;;;7.19;56.65;100498.19;5051033;28;19920;-75
2022/04/09 05:50:12;;;;;;;;;;;;;;;7.12;56.48;100498.25;5041354;28;19920;-75
2022/04/09 05:52:38;;;;;;;;;;;;;;;6.97;57.69;100511.34;5042342;28;19921;-77
2022/04/09 05:55:04;;;;;;;;;;;;;;;7.28;56.32;100505.84;5053672;28;20324;-79
2022/04/09 05:57:30;;;;;;;;;;;;;;;7.52;55.98;100516.72;5056287;28;19912;-76
2022/04/09 05:59:55;;;;;;;;;;;;;;;7.49;55.08;100511.63;5051849;28;20040;-75
2022/04/09 06:02:20;;;;;;;;;;;;;;;7.21;56.50;100524.84;5044695;28;19924;-75
2022/04/09 06:04:45;;;;;;;;;;;;;;;7.11;56.72;100524.09;5043722;28;20381;-75
2022/04/09 06:07:13;;;;;;;;;;;;;;;7.23;55.90;100533.47;5060341;28;19920;-75
2022/04/09 06:09:39;;;;;;;;;;;;;;;7.09;56.88;100531.88;5059587;28;19920;-78
2022/04/09 06:12:06;;;;;;;;;;;;;;;7.42;55.65;100528.06;5039327;28;19921;-79
2022/04/09 06:14:31;;;;;;;;;;;;;;;7.18;56.74;100532.66;5057327;28;20070;-78
2022/04/09 06:16:57;;;;;;;;;;;;;;;7.19;57.42;100540.38;5049061;28;20624;-78
2022/04/09 06:19:22;;;;;;;;;;;;;;;7.56;56.20;100544.25;5048837;28;19955;-78
2022/04/09 06:21:47;;;;;;;;;;;;;;;7.37;56.86;100547.94;5052120;28;19925;-78
2022/04/09 06:24:13;;;;;;;;;;;;;;;7.26;57.52;100551.50;5059964;28;19916;-78
2022/04/09 06:26:38;;;;;;;;;;;;;;;7.09;58.39;100555.13;5054894;28;20568;-78
2022/04/09 06:29:04;;;;;;;;;;;;;;;7.22;57.59;100555.84;5051756;28;20546;-78
2022/04/09 06:31:29;;;;;;;;;;;;;;;7.18;57.69;100563.63;5056249;28;19921;-77
2022/04/09 06:33:54;;;;;;;;;;;;;;;7.28;57.16;100570.44;5055813;28;19970;-77
2022/04/09 06:36:20;;;;;;;;;;;;;;;7.40;57.05;100576.34;5058891;28;19916;-77
2022/04/09 06:38:45;;;;;;;;;;;;;;;7.46;56.25;100575.41;5053960;28;19928;-78
2022/04/09 06:41:11;;;;;;;;;;;;;;;7.31;56.31;100573.84;5056557;28;19925;-79
2022/04/09 06:43:36;;;;;;;;;;;;;;;7.04;57.64;100587.03;5050387;28;19925;-79
2022/04/09 06:46:01;;;;;;;;;;;;;;;7.46;56.17;100591.78;5064897;28;19924;-79
2022/04/09 06:48:27;;;;;;;;;;;;;;;7.52;56.46;100590.84;5066390;28;20345;-79
2022/04/09 06:50:52;;;;;;;;;;;;;;;7.40;56.14;100588.38;5060138;28;19920;-79
2022/04/09 06:53:17;;;;;;;;;;;;;;;7.10;57.75;100602.47;5068204;28;19964;-79
2022/04/09 06:55:43;;;;;;;;;;;;;;;7.52;56.45;100601.19;5045569;28;19920;-80
2022/04/09 06:58:08;;;;;;;;;;;;;;;7.62;55.72;100607.94;5049167;28;19951;-75
2022/04/09 07:00:34;;;;;;;;;;;;;;;7.67;55.00;100601.00;5052750;28;20000;-75
2022/04/09 07:03:02;;;;;;;;;;;;;;;7.32;55.96;100601.38;5060603;28;19924;-75
2022/04/09 07:05:27;;;;;;;;;;;;;;;7.27;56.46;100605.75;5058994;28;19994;-78
2022/04/09 07:07:53;;;;;;;;;;;;;;;7.25;57.26;100609.22;5049187;28;19925;-79
2022/04/09 07:10:18;;;;;;;;;;;;;;;6.93;57.39;100612.94;5053847;28;19921;-78
2022/04/09 07:12:43;;;;;;;;;;;;;;;7.48;56.30;100615.88;5059134;28;19931;-79
2022/04/09 07:15:09;;;;;;;;;;;;;;;7.45;55.22;100626.22;5040913;28;19921;-79
2022/04/09 07:17:34;;;;;;;;;;;;;;;7.52;55.51;100622.69;5045032;28;20015;-75
2022/04/09 07:20:01;;;;;;;;;;;;;;;7.17;55.67;100621.38;5052901;28;20435;-75
2022/04/09 07:22:26;;;;;;;;;;;;;;;7.30;55.98;100628.09;5043830;28;19999;-75
2022/04/09 07:24:52;;;;;;;;;;;;;;;7.38;55.22;100628.88;5053658;28;20035;-79
2022/04/09 07:27:17;;;;;;;;;;;;;;;7.55;55.79;100639.91;5049158;28;19917;-79
2022/04/09 07:29:43;;;;;;;;;;;;;;;7.62;54.77;100637.25;5053823;28;19923;-80
2022/04/09 07:32:08;;;;;;;;;;;;;;;7.69;54.88;100640.63;5046332;28;20040;-80
2022/04/09 07:34:34;;;;;;;;;;;;;;;7.77;54.17;100643.09;5061176;28;20003;-79
2022/04/09 07:36:59;;;;;;;;;;;;;;;7.76;53.46;100644.81;5052959;28;20369;-75
2022/04/09 07:39:24;;;;;;;;;;;;;;;7.55;54.83;100647.69;5060796;28;19940;-78
2022/04/09 07:41:50;;;;;;;;;;;;;;;7.67;55.15;100658.72;5048163;28;19932;-77
2022/04/09 07:44:15;;;;;;;;;;;;;;;7.61;55.06;100658.78;5050023;28;19928;-77
2022/04/09 07:46:40;;;;;;;;;;;;;;;7.86;54.49;100659.38;5048988;28;19975;-77
2022/04/09 07:49:06;;;;;;;;;;;;;;;7.68;53.67;100650.09;5047863;28;19928;-77
2022/04/09 07:51:31;;;;;;;;;;;;;;;7.59;53.04;100652.78;5042479;28;19970;-77
2022/04/09 07:53:56;;;;;;;;;;;;;;;7.81;52.28;100660.31;5049218;28;19924;-75
2022/04/09 07:56:22;;;;;;;;;;;;;;;7.84;53.12;100655.09;5043500;28;20031;-75
2022/04/09 07:58:47;;;;;;;;;;;;;;;7.58;53.60;100660.56;5063470;28;19924;-74
2022/04/09 08:01:12;;;;;;;;;;;;;;;7.90;53.30;100663.66;5056334;28;19935;-80
2022/04/09 08:03:38;;;;;;;;;;;;;;;7.85;53.43;100667.16;5051244;28;19952;-80
2022/04/09 08:06:05;;;;;;;;;;;;;;;7.99;52.42;100670.44;5058391;28;19924;-80
2022/04/09 08:08:30;;;;;;;;;;;;;;;7.64;54.24;100668.25;5056817;28;19928;-80
2022/04/09 08:10:56;;;;;;;;;;;;;;;7.77;53.61;100675.00;5051937;28;19971;-77
2022/04/09 08:13:21;;;;;;;;;;;;;;;7.83;53.87;100681.81;5063323;28;19928;-77
2022/04/09 08:15:47;;;;;;;;;;;;;;;7.53;54.18;100683.88;5051740;28;20016;-74
2022/04/09 08:18:12;;;;;;;;;;;;;;;7.55;54.08;100696.78;5051245;28;19924;-75
2022/04/09 08:20:37;;;;;;;;;;;;;;;8.02;53.57;100706.63;5034249;28;20557;-75
2022/04/09 08:23:04;;;;;;;;;;;;;;;7.72;53.41;100688.84;5054068;28;19971;-75
2022/04/09 08:25:29;;;;;;;;;;;;;;;7.92;53.65;100695.50;5055981;28;19917;-74
2022/04/09 08:27:55;;;;;;;;;;;;;;;7.66;53.58;100697.53;5053097;28;19921;-74
2022/04/09 08:30:22;;;;;;;;;;;;;;;8.01;53.81;100699.72;5051953;28;19929;-80
2022/04/09 08:32:49;;;;;;;;;;;;;;;7.82;52.62;100708.56;5057036;28;19948;-80
2022/04/09 08:35:14;;;;;;;;;;;;;;;7.56;53.91;100714.84;5050666;28;19925;-79
2022/04/09 08:37:41;;;;;;;;;;;;;;;7.66;53.40;100706.16;5042638;28;20053;-78
2022/04/09 08:40:06;;;;;;;;;;;;;;;7.55;52.51;100712.28;5049845;28;20058;-78
2022/04/09 08:42:32;;;;;;;;;;;;;;;7.73;53.52;100711.25;5058180;28;20027;-79
2022/04/09 08:45:01;;;;;;;;;;;;;;;7.68;53.81;100716.47;5057338;28;19943;-80
2022/04/09 08:47:28;;;;;;;;;;;;;;;7.73;52.83;100708.66;5048382;28;20007;-80
2022/04/09 08:49:54;;;;;;;;;;;;;;;8.01;52.69;100718.69;5058331;28;19931;-81
2022/04/09 08:52:20;;;;;;;;;;;;;;;7.84;53.97;100720.59;5047789;28;20419;-78
2022/04/09 08:54:45;;;;;;;;;;;;;;;7.97;51.57;100717.00;5041413;28;19951;-79
2022/04/09 08:57:11;;;;;;;;;;;;;;;8.05;52.59;100719.50;5056940;28;19916;-74
2022/04/09 08:59:36;;;;;;;;;;;;;;;8.09;51.44;100723.75;5057635;28;20320;-74
2022/04/09 09:02:02;;;;;;;;;;;;;;;8.21;50.78;100721.91;5042593;28;19924;-79
2022/04/09 09:04:27;;;;;;;;;;;;;;;7.87;51.80;100718.00;5061598;28;20015;-78
2022/04/09 09:06:53;;;;;;;;;;;;;;;7.91;52.72;100730.00;5059913;28;19920;-80
2022/04/09 09:09:29;;;;;;;;;;;;;;;8.21;51.96;100732.25;5056845;28;19924;-77
2022/04/09 09:11:55;;;;;;;;;;;;;;;8.17;50.02;100730.59;5047782;28;19948;-74
2022/04/09 09:14:30;;;;;;;;;;;;;;;8.19;50.59;100718.47;5056106;28;19932;-74
2022/04/09 09:16:58;;;;;;;;;;;;;;;7.93;51.13;100730.88;5055325;28;20522;-75
2022/04/09 09:19:45;;;;;;;;;;;;;;;8.16;51.42;100731.44;5061419;28;19924;-79
2022/04/09 09:22:10;;;;;;;;;;;;;;;8.16;49.96;100731.44;5040142;28;19956;-75
2022/04/09 09:24:36;;;;;;;;;;;;;;;8.09;49.91;100747.03;5054556;28;20006;-75
2022/04/09 09:27:02;;;;;;;;;;;;;;;8.15;49.73;100745.25;5053085;28;20008;-75
2022/04/09 09:29:29;;;;;;;;;;;;;;;7.92;50.08;100755.00;5048184;28;20393;-77
2022/04/09 09:31:58;;;;;;;;;;;;;;;8.07;49.56;100744.50;5056240;28;20525;-77
2022/04/09 09:34:24;;;;;;;;;;;;;;;8.27;48.45;100747.69;5044931;28;19975;-79
2022/04/09 09:36:49;;;;;;;;;;;;;;;8.34;48.87;100738.16;5050758;28;19964;-75
2022/04/09 09:39:16;;;;;;;;;;;;;;;7.98;48.18;100738.56;5052949;28;19921;-77
2022/04/09 09:42:03;;;;;;;;;;;;;;;8.23;48.55;100740.00;5055624;28;19928;-77
2022/04/09 09:44:32;;;;;;;;;;;;;;;8.40;49.89;100747.59;5027990;28;19924;-79
2022/04/09 09:47:08;;;;;;;;;;;;;;;8.29;48.98;100752.88;5057773;28;19932;-79
2022/04/09 09:49:59;;;;;;;;;;;;;;;8.31;48.75;100748.53;5045022;28;19925;-79
2022/04/09 09:52:31;;;;;;;;;;;;;;;8.06;50.30;100765.19;5047589;28;20015;-78
2022/04/09 09:54:57;;;;;;;;;;;;;;;8.22;48.35;100758.97;5043054;28;19974;-79
2022/04/09 09:57:24;;;;;;;;;;;;;;;8.14;48.94;100747.88;5044372;28;19925;-74
2022/04/09 09:59:50;;;;;;;;;;;;;;;8.36;48.35;100751.94;5055642;28;19968;-77
2022/04/09 10:02:23;;;;;;;;;;;;;;;8.14;48.72;100756.50;5052046;28;20702;-78
2022/04/09 10:04:49;;;;;;;;;;;;;;;8.63;48.66;100748.13;5041047;28;19943;-78
2022/04/09 10:07:15;;;;;;;;;;;;;;;8.68;48.34;100744.59;5042808;28;19931;-78
2022/04/09 10:09:41;;;;;;;;;;;;;;;8.68;47.45;100761.91;5061168;28;19917;-75
2022/04/09 10:12:10;;;;;;;;;;;;;;;8.50;45.67;100754.38;5043191;28;19971;-80
2022/04/09 10:14:38;;;;;;;;;;;;;;;8.40;45.16;100763.97;5050912;28;19975;-80
2022/04/09 10:17:06;;;;;;;;;;;;;;;8.49;44.44;100757.81;5048931;28;19917;-80
2022/04/09 10:19:33;;;;;;;;;;;;;;;8.55;45.86;100755.16;5051962;28;19920;-80
2022/04/09 10:22:00;;;;;;;;;;;;;;;8.79;46.15;100754.84;5067385;28;19924;-80
2022/04/09 10:24:26;;;;;;;;;;;;;;;8.76;44.43;100749.69;5044906;28;19967;-78
2022/04/09 10:26:56;;;;;;;;;;;;;;;8.60;45.18;100759.41;5045666;28;20650;-80
2022/04/09 10:29:22;;;;;;;;;;;;;;;8.41;43.50;100770.88;5052131;28;19929;-78
2022/04/09 10:31:51;;;;;;;;;;;;;;;8.63;42.87;100748.13;5056329;28;19927;-78
2022/04/09 10:34:17;;;;;;;;;;;;;;;8.70;44.06;100749.78;5043916;28;20497;-78
2022/04/09 10:36:42;;;;;;;;;;;;;;;8.81;44.53;100745.31;5045356;28;19924;-78
2022/04/09 10:39:21;;;;;;;;;;;;;;;8.67;41.55;100757.59;5051075;28;19917;-78
2022/04/09 10:41:47;;;;;;;;;;;;;;;8.89;42.35;100743.44;5045496;28;19928;-78
2022/04/09 10:44:32;;;;;;;;;;;;;;;9.09;42.84;100750.94;5051419;28;20472;-78
2022/04/09 10:46:59;;;;;;;;;;;;;;;8.62;42.15;100747.28;5050832;28;19925;-79
2022/04/09 10:49:26;;;;;;;;;;;;;;;8.63;42.02;100746.41;5040969;28;20696;-79
2022/04/09 10:52:14;;;;;;;;;;;;;;;8.71;42.95;100746.31;5065764;28;20379;-79
2022/04/09 10:54:41;;;;;;;;;;;;;;;8.70;43.36;100747.19;5052195;28;19925;-78
2022/04/09 10:57:07;;;;;;;;;;;;;;;8.87;43.32;100757.31;5050344;28;19929;-78
2022/04/09 10:59:33;;;;;;;;;;;;;;;8.75;42.00;100746.25;5047029;28;20339;-78
2022/04/09 11:01:59;;;;;;;;;;;;;;;8.85;41.39;100746.97;5052581;28;19966;-78
2022/04/09 11:04:36;;;;;;;;;;;;;;;8.70;41.73;100744.59;5063818;28;19932;-74
2022/04/09 11:07:02;;;;;;;;;;;;;;;8.96;42.67;100739.91;5051357;28;19932;-80
2022/04/09 11:09:44;;;;;;;;;;;;;;;9.05;42.83;100757.91;5045289;28;19925;-78
2022/04/09 11:12:10;;;;;;;;;;;;;;;8.96;42.25;100737.31;5023273;28;20373;-78
2022/04/09 11:14:49;;;;;;;;;;;;;;;9.19;42.41;100747.31;5037347;28;20019;-78
2022/04/09 11:17:16;;;;;;;;;;;;;;;9.00;43.18;100725.19;5040543;28;19959;-78
2022/04/09 11:19:42;;;;;;;;;;;;;;;9.11;41.20;100733.63;5052012;28;19929;-78
2022/04/09 11:22:09;;;;;;;;;;;;;;;9.25;41.42;100740.31;5049519;28;19940;-78
2022/04/09 11:24:37;;;;;;;;;;;;;;;9.13;42.51;100745.69;5052524;28;19971;-78
2022/04/09 11:27:03;;;;;;;;;;;;;;;9.31;42.31;100745.41;5043874;28;19999;-78
2022/04/09 11:29:35;;;;;;;;;;;;;;;9.17;43.38;100755.13;5050273;28;20050;-78
2022/04/09 11:32:01;;;;;;;;;;;;;;;9.33;45.67;100748.81;5046665;28;19932;-77
2022/04/09 11:34:26;;;;;;;;;;;;;;;9.31;45.47;100753.16;5050172;28;19924;-77
2022/04/09 11:37:06;;;;;;;;;;;;;;;9.38;43.59;100763.44;5046433;28;19932;-77
2022/04/09 11:39:37;;;;;;;;;;;;;;;9.20;43.53;100774.97;5045154;28;20372;-77
2022/04/09 11:42:02;;;;;;;;;;;;;;;8.56;45.53;100824.19;5044254;28;19925;-77
2022/04/09 11:44:28;;;;;;;;;;;;;;;8.54;46.73;100833.69;5042906;28;19947;-77
2022/04/09 11:46:53;;;;;;;;;;;;;;;8.16;52.22;100866.00;5048450;28;19947;-77
2022/04/09 11:49:18;;;;;;;;;;;;;;;7.99;57.81;100817.88;5048875;28;19928;-78
2022/04/09 11:51:53;;;;;;;;;;;;;;;8.29;60.61;100809.81;5049036;28;19944;-77
2022/04/09 11:54:19;;;;;;;;;;;;;;;8.06;57.67;100797.09;5053656;28;20408;-79
2022/04/09 11:56:44;;;;;;;;;;;;;;;8.38;54.45;100804.56;5052975;28;19924;-79
2022/04/09 11:59:16;;;;;;;;;;;;;;;8.47;55.92;100814.81;5040226;28;19925;-79
2022/04/09 12:01:45;;;;;;;;;;;;;;;8.54;54.70;100810.41;5061437;28;20392;-75
2022/04/09 12:04:11;;;;;;;;;;;;;;;8.54;51.22;100805.22;5058796;28;19978;-78
2022/04/09 12:06:37;;;;;;;;;;;;;;;8.69;51.71;100811.06;5058424;28;20424;-79
2022/04/09 12:09:02;;;;;;;;;;;;;;;8.83;51.78;100816.06;5053243;28;19917;-79
2022/04/09 12:11:27;;;;;;;;;;;;;;;9.05;52.75;100811.47;5052233;28;19929;-79
2022/04/09 12:13:53;;;;;;;;;;;;;;;8.87;50.49;100822.06;5056041;28;19921;-79
2022/04/09 12:16:19;;;;;;;;;;;;;;;8.46;49.60;100812.22;5051987;28;19924;-79
2022/04/09 12:18:45;;;;;;;;;;;;;;;8.78;47.12;100830.81;5057282;28;19993;-79
2022/04/09 12:21:24;;;;;;;;;;;;;;;8.50;49.96;100827.72;5055218;28;19928;-79
2022/04/09 12:24:02;;;;;;;;;;;;;;;8.33;51.15;100833.91;5047219;28;20061;-79
2022/04/09 12:26:28;;;;;;;;;;;;;;;8.33;50.82;100814.09;5046777;28;20007;-79
2022/04/09 12:29:12;;;;;;;;;;;;;;;8.62;48.26;100809.44;5051320;28;20355;-74
2022/04/09 12:31:39;;;;;;;;;;;;;;;8.54;48.76;100812.97;5038410;28;20317;-79
2022/04/09 12:34:04;;;;;;;;;;;;;;;8.85;45.78;100824.69;5040865;28;19921;-79
2022/04/09 12:36:30;;;;;;;;;;;;;;;8.44;47.25;100832.97;5029591;28;19917;-79
2022/04/09 12:38:55;;;;;;;;;;;;;;;8.27;47.13;100841.75;5038846;28;19929;-79
2022/04/09 12:41:21;;;;;;;;;;;;;;;8.17;47.44;100828.06;5043030;28;19928;-79
2022/04/09 12:43:47;;;;;;;;;;;;;;;8.79;47.84;100814.41;5040604;28;19925;-79